Time;durP1;ratioP1;P1;durP2;ratioP2;P2;SDS_P1;SDS_P2;PMS_P1;PMS_P2;Temp;Humidity;BMP_temperature;BMP_pressure;BME280_temperature;BME280_humidity;BME280_pressure;Samples;Min_cycle;Max_cycle;Signal;HPM_P1;HPM_P2
2021/12/21 00:01:22;;;;;;;0.40;0.30;;;;;;;2.36;99.54;102114.41;5035992;28;20523;-68
2021/12/21 00:03:48;;;;;;;0.40;0.23;;;;;;;2.25;99.99;102113.19;5035811;28;20537;-68
2021/12/21 00:06:15;;;;;;;0.40;0.30;;;;;;;2.23;100.00;102121.44;5035893;28;20868;-68
2021/12/21 00:08:41;;;;;;;0.40;0.30;;;;;;;2.32;100.00;102115.88;5035819;28;20447;-68
2021/12/21 00:11:09;;;;;;;0.40;0.20;;;;;;;2.26;100.00;102104.97;5036176;28;20451;-67
2021/12/21 00:16:28;;;;;;;0.40;0.30;;;;;;;2.49;100.00;102101.84;5026769;28;20812;-68
2021/12/21 00:19:09;;;;;;;0.40;0.30;;;;;;;2.50;100.00;102108.00;5035717;28;20860;-70
2021/12/21 00:21:39;;;;;;;0.40;0.20;;;;;;;2.45;100.00;102110.50;5035624;28;20506;-70
2021/12/21 00:24:12;;;;;;;1.70;1.43;;;;;;;2.47;100.00;102111.09;5035470;28;20830;-69
2021/12/21 00:26:40;;;;;;;0.40;0.30;;;;;;;2.44;100.00;102108.84;5035529;28;20463;-69
2021/12/21 00:29:07;;;;;;;0.40;0.20;;;;;;;2.43;100.00;102125.91;5035153;28;20967;-68
2021/12/21 00:31:35;;;;;;;0.40;0.20;;;;;;;2.31;100.00;102124.94;5035412;28;20454;-69
2021/12/21 00:34:03;;;;;;;0.40;0.20;;;;;;;2.37;100.00;102126.75;5035295;28;20496;-70
2021/12/21 00:36:31;;;;;;;0.40;0.20;;;;;;;2.44;100.00;102116.88;5035322;28;20449;-69
2021/12/21 00:39:03;;;;;;;0.40;0.30;;;;;;;2.53;100.00;102123.66;5035257;28;20443;-69
2021/12/21 00:41:31;;;;;;;0.40;0.20;;;;;;;2.59;100.00;102120.13;5034898;28;20467;-70
2021/12/21 00:43:59;;;;;;;0.40;0.20;;;;;;;2.53;100.00;102126.31;5034935;28;20495;-69
2021/12/21 00:46:25;;;;;;;0.40;0.30;;;;;;;2.56;100.00;102122.38;5035185;28;20450;-69
2021/12/21 00:48:55;;;;;;;0.40;0.30;;;;;;;2.58;100.00;102115.81;5035063;28;20554;-69
2021/12/21 00:51:28;;;;;;;0.40;0.20;;;;;;;2.55;100.00;102121.56;5035019;28;20447;-70
2021/12/21 00:53:54;;;;;;;0.40;0.30;;;;;;;2.58;100.00;102112.31;5034913;28;20462;-70
2021/12/21 00:56:21;;;;;;;0.40;0.30;;;;;;;2.61;100.00;102112.72;5035189;28;20435;-69
2021/12/21 00:58:47;;;;;;;0.40;0.20;;;;;;;2.54;100.00;102111.91;5034559;28;20450;-70
2021/12/21 01:01:15;;;;;;;0.40;0.30;;;;;;;2.54;100.00;102101.22;5034858;28;20446;-69
2021/12/21 01:03:47;;;;;;;3.50;3.30;;;;;;;2.51;100.00;102101.63;5034654;28;20840;-70
2021/12/21 01:06:20;;;;;;;0.40;0.20;;;;;;;2.50;100.00;102105.34;5034073;28;20846;-70
2021/12/21 01:09:00;;;;;;;0.40;0.20;;;;;;;2.45;99.78;102099.81;5034646;28;20511;-69
2021/12/21 01:11:31;;;;;;;0.40;0.30;;;;;;;2.32;99.78;102097.97;5034719;28;20488;-69
2021/12/21 01:14:09;;;;;;;0.40;0.30;;;;;;;2.35;100.00;102091.41;5034257;28;20991;-69
2021/12/21 01:16:42;;;;;;;0.40;0.20;;;;;;;2.40;99.83;102086.25;5034253;28;20893;-70
2021/12/21 01:19:15;;;;;;;1.33;1.23;;;;;;;2.34;100.00;102084.38;5034560;28;20462;-70
2021/12/21 01:21:50;;;;;;;0.40;0.20;;;;;;;2.31;100.00;102092.84;5034386;28;20458;-70
2021/12/21 01:24:29;;;;;;;0.40;0.20;;;;;;;2.31;99.88;102084.81;5034358;28;20524;-69
2021/12/21 01:27:09;;;;;;;0.40;0.30;;;;;;;2.22;100.00;102087.72;5034353;28;20431;-69
2021/12/21 01:29:44;;;;;;;0.40;0.20;;;;;;;2.22;100.00;102092.25;5034305;28;20432;-69
2021/12/21 01:32:19;;;;;;;0.40;0.30;;;;;;;2.25;99.84;102089.94;5034244;28;20462;-69
2021/12/21 01:34:56;;;;;;;0.40;0.20;;;;;;;2.34;99.96;102079.84;5033920;28;20431;-69
2021/12/21 01:37:29;;;;;;;0.40;0.20;;;;;;;2.38;100.00;102085.59;5034187;28;20500;-69
2021/12/21 01:40:11;;;;;;;0.40;0.20;;;;;;;2.44;100.00;102077.59;5034029;28;20427;-70
2021/12/21 01:42:52;;;;;;;0.40;0.30;;;;;;;2.44;100.00;102085.59;5033793;28;20480;-69
2021/12/21 01:50:52;;;;;;;0.40;0.30;;;;;;;2.49;100.00;102076.97;5033793;28;20495;-69
2021/12/21 01:53:20;;;;;;;0.40;0.30;;;;;;;2.50;100.00;102078.59;5033816;28;20459;-70
2021/12/21 01:55:47;;;;;;;0.40;0.30;;;;;;;2.54;100.00;102079.81;5033837;28;20443;-68
2021/12/21 01:58:14;;;;;;;0.40;0.20;;;;;;;2.55;100.00;102077.97;5034089;28;20447;-68
2021/12/21 02:00:41;;;;;;;0.40;0.30;;;;;;;2.56;100.00;102072.38;5033753;28;20470;-69
2021/12/21 02:03:09;;;;;;;0.40;0.30;;;;;;;2.57;100.00;102082.09;5033906;28;20471;-68
2021/12/21 02:05:36;;;;;;;0.40;0.20;;;;;;;2.54;100.00;102079.81;5033621;28;20486;-70
2021/12/21 02:08:04;;;;;;;0.40;0.20;;;;;;;2.53;100.00;102076.31;5033363;28;20803;-70
2021/12/21 02:10:30;;;;;;;0.40;0.20;;;;;;;2.55;100.00;102081.44;5033605;28;20431;-70
2021/12/21 02:12:57;;;;;;;1.33;1.03;;;;;;;2.57;100.00;102068.72;5033452;28;20912;-70
2021/12/21 02:15:24;;;;;;;0.40;0.20;;;;;;;2.63;100.00;102069.72;5033226;28;20932;-70
2021/12/21 02:18:28;;;;;;;0.40;0.40;;;;;;;2.62;100.00;102073.44;5033335;28;20447;-69
2021/12/21 02:21:01;;;;;;;0.40;0.30;;;;;;;2.61;100.00;102072.59;5033516;28;20435;-70
2021/12/21 02:23:32;;;;;;;0.40;0.20;;;;;;;2.58;100.00;102059.66;5033025;28;20849;-70
2021/12/21 02:31:26;;;;;;;0.40;0.20;;;;;;;2.48;100.00;102061.94;5033235;28;20410;-69
2021/12/21 02:33:53;;;;;;;0.40;0.30;;;;;;;2.44;100.00;102050.84;5033500;28;20495;-69
2021/12/21 02:36:21;;;;;;;0.40;0.30;;;;;;;2.38;100.00;102051.66;5033280;28;20443;-70
2021/12/21 02:38:47;;;;;;;0.40;0.20;;;;;;;2.42;100.00;102054.75;5033212;28;20496;-70
2021/12/21 02:41:14;;;;;;;0.40;0.30;;;;;;;2.37;100.00;102058.06;5033206;28;20451;-69
2021/12/21 02:43:40;;;;;;;0.40;0.30;;;;;;;2.37;100.00;102058.06;5033043;28;20483;-70
2021/12/21 02:46:07;;;;;;;0.40;0.20;;;;;;;2.33;100.00;102061.34;5033280;28;20479;-69
2021/12/21 02:48:34;;;;;;;0.40;0.30;;;;;;;2.33;100.00;102064.84;5033134;28;20479;-69
2021/12/21 02:51:01;;;;;;;0.40;0.30;;;;;;;2.33;100.00;102056.81;5033150;28;20443;-70
2021/12/21 02:53:29;;;;;;;0.40;0.30;;;;;;;2.40;100.00;102057.66;5032726;28;20467;-70
2021/12/21 02:55:55;;;;;;;0.40;0.20;;;;;;;2.43;100.00;102067.09;5033098;28;20439;-70
2021/12/21 02:58:22;;;;;;;0.40;0.20;;;;;;;2.40;100.00;102054.16;5032746;28;20439;-70
2021/12/21 03:00:49;;;;;;;0.40;0.30;;;;;;;2.40;100.00;102052.28;5032994;28;20443;-70
2021/12/21 03:03:15;;;;;;;0.40;0.30;;;;;;;2.43;100.00;102051.03;5032906;28;20463;-70
2021/12/21 03:05:46;;;;;;;0.50;0.50;;;;;;;2.44;100.00;102052.69;5032929;28;20490;-70
2021/12/21 03:08:17;;;;;;;0.40;0.30;;;;;;;2.44;100.00;102042.81;5033326;28;20430;-70
2021/12/21 03:11:00;;;;;;;0.40;0.30;;;;;;;2.43;100.00;102056.38;5032681;28;20859;-70
2021/12/21 03:16:11;;;;;;;0.40;0.30;;;;;;;2.28;100.00;102052.13;5032831;28;20473;-70
2021/12/21 03:18:37;;;;;;;0.40;0.30;;;;;;;2.32;100.00;102049.03;5032627;28;20458;-69
2021/12/21 03:21:04;;;;;;;0.40;0.30;;;;;;;2.31;100.00;102052.75;5032922;28;20490;-69
2021/12/21 03:23:31;;;;;;;0.40;0.30;;;;;;;2.31;100.00;102050.88;5032786;28;20447;-69
2021/12/21 03:26:02;;;;;;;0.40;0.30;;;;;;;2.39;100.00;102045.31;5032412;28;20482;-70
2021/12/21 03:28:28;;;;;;;1.10;1.07;;;;;;;2.38;100.00;102049.00;5032816;28;20496;-69
2021/12/21 03:30:55;;;;;;;0.40;0.30;;;;;;;2.41;100.00;102048.59;5035122;28;20557;-69
2021/12/21 03:33:21;;;;;;;0.70;0.70;;;;;;;2.40;100.00;102046.13;5036489;28;20467;-69
2021/12/21 03:35:48;;;;;;;0.40;0.30;;;;;;;2.40;100.00;102046.94;5036422;28;20451;-69
2021/12/21 03:38:15;;;;;;;0.40;0.27;;;;;;;2.44;100.00;102044.69;5036432;28;20445;-69
2021/12/21 03:40:42;;;;;;;0.40;0.30;;;;;;;2.43;100.00;102046.50;5036377;28;20871;-69
2021/12/21 03:43:11;;;;;;;0.40;0.30;;;;;;;2.48;100.00;102045.91;5035974;28;20842;-69
2021/12/21 03:45:41;;;;;;;0.50;0.40;;;;;;;2.46;100.00;102040.75;5036225;28;20487;-69
2021/12/21 03:48:12;;;;;;;0.40;0.20;;;;;;;2.53;100.00;102035.41;5036006;28;20893;-69
2021/12/21 03:50:39;;;;;;;0.40;0.30;;;;;;;2.53;100.00;102038.06;5037781;28;20436;-69
2021/12/21 03:53:05;;;;;;;0.40;0.30;;;;;;;2.53;100.00;102040.75;5035631;28;20968;-70
2021/12/21 03:55:32;;;;;;;0.40;0.20;;;;;;;2.55;100.00;102038.66;5035775;28;20952;-70
2021/12/21 03:57:58;;;;;;;2.90;2.70;;;;;;;2.54;100.00;102045.06;5036012;28;20443;-70
2021/12/21 04:00:27;;;;;;;1.80;1.70;;;;;;;2.52;100.00;102036.41;5035708;28;20435;-70
2021/12/21 04:02:54;;;;;;;0.40;0.30;;;;;;;2.51;100.00;102042.78;5035892;28;20467;-70
2021/12/21 04:05:20;;;;;;;0.40;0.30;;;;;;;2.44;100.00;102047.34;5035571;28;21090;-70
2021/12/21 04:07:47;;;;;;;0.40;0.30;;;;;;;2.39;100.00;102039.13;5035976;28;20454;-70
2021/12/21 04:10:13;;;;;;;0.40;0.30;;;;;;;2.28;100.00;102043.28;5036058;28;20443;-70
2021/12/21 04:12:40;;;;;;;0.40;0.30;;;;;;;2.35;100.00;102037.94;5035702;28;20466;-70
2021/12/21 04:15:07;;;;;;;0.40;0.20;;;;;;;2.41;100.00;102037.06;5035739;28;20442;-70
2021/12/21 04:17:35;;;;;;;25.10;23.60;;;;;;;2.38;100.00;102034.81;5035702;28;20446;-70
2021/12/21 04:20:02;;;;;;;0.40;0.30;;;;;;;2.44;100.00;102044.69;5035333;28;20947;-70
2021/12/21 04:22:28;;;;;;;0.40;0.20;;;;;;;2.45;100.00;102035.63;5035519;28;20471;-70
2021/12/21 04:24:55;;;;;;;0.40;0.20;;;;;;;2.27;100.00;102039.78;5035499;28;20479;-70
2021/12/21 04:27:21;;;;;;;0.40;0.30;;;;;;;2.33;100.00;102037.28;5035527;28;20450;-71
2021/12/21 04:29:48;;;;;;;0.40;0.20;;;;;;;2.26;100.00;102043.50;5035469;28;20802;-70
2021/12/21 04:32:14;;;;;;;0.40;0.27;;;;;;;2.30;100.00;102045.72;5035339;28;20459;-70
2021/12/21 04:34:43;;;;;;;0.40;0.30;;;;;;;2.30;100.00;102045.72;5035355;28;20443;-70
2021/12/21 04:37:10;;;;;;;0.40;0.30;;;;;;;2.35;100.00;102038.75;5035354;28;20447;-70
2021/12/21 04:39:42;;;;;;;0.40;0.20;;;;;;;2.35;100.00;102045.94;5035206;28;20455;-70
2021/12/21 04:42:09;;;;;;;0.40;0.20;;;;;;;2.38;100.00;102043.66;5033769;28;20561;-70
2021/12/21 04:44:35;;;;;;;0.40;0.30;;;;;;;2.41;100.00;102048.59;5034820;28;20896;-70
2021/12/21 04:47:02;;;;;;;0.40;0.30;;;;;;;2.40;100.00;102044.28;5034849;28;20940;-69
2021/12/21 04:49:28;;;;;;;0.40;0.30;;;;;;;2.47;100.00;102038.91;5035156;28;20443;-70
2021/12/21 04:51:56;;;;;;;0.40;0.30;;;;;;;2.47;100.00;102053.06;5035205;28;20450;-70
2021/12/21 04:54:23;;;;;;;0.40;0.20;;;;;;;2.49;100.00;102047.53;5034706;28;20924;-70
2021/12/21 04:56:50;;;;;;;0.40;0.30;;;;;;;2.55;100.00;102044.00;5034915;28;20450;-70
2021/12/21 04:59:16;;;;;;;0.40;0.30;;;;;;;2.54;100.00;102039.69;5034956;28;20443;-69
2021/12/21 05:01:43;;;;;;;0.50;0.40;;;;;;;2.58;100.00;102037.44;5034795;28;20455;-69
2021/12/21 05:04:09;;;;;;;0.40;0.30;;;;;;;2.49;100.00;102042.19;5034943;28;20451;-69
2021/12/21 05:06:36;;;;;;;0.40;0.20;;;;;;;2.49;100.00;102045.69;5034663;28;20832;-70
2021/12/21 05:09:11;;;;;;;0.40;0.20;;;;;;;2.50;100.00;102047.31;5034380;28;20451;-69
2021/12/21 05:11:41;;;;;;;0.40;0.20;;;;;;;2.51;100.00;102048.13;5034648;28;20416;-69
2021/12/21 05:14:09;;;;;;;0.40;0.30;;;;;;;2.53;100.00;102044.22;5034947;28;20443;-69
2021/12/21 05:16:36;;;;;;;0.40;0.30;;;;;;;2.49;100.00;102058.25;5034587;28;20478;-69
2021/12/21 05:19:03;;;;;;;0.40;0.20;;;;;;;2.47;100.00;102052.25;5034533;28;20446;-69
2021/12/21 05:21:29;;;;;;;0.40;0.30;;;;;;;2.45;100.00;102057.84;5034515;28;20446;-69
2021/12/21 05:23:56;;;;;;;0.40;0.40;;;;;;;2.39;100.00;102057.84;5034402;28;20463;-69
2021/12/21 05:26:23;;;;;;;0.60;0.60;;;;;;;2.32;100.00;102060.53;5034320;28;20483;-69
2021/12/21 05:28:50;;;;;;;0.40;0.20;;;;;;;2.31;100.00;102063.44;5034312;28;20454;-69
2021/12/21 05:31:16;;;;;;;0.40;0.30;;;;;;;2.30;100.00;102056.41;5034281;28;20451;-69
2021/12/21 05:33:44;;;;;;;0.40;0.20;;;;;;;2.35;100.00;102052.13;5033796;28;20463;-69
2021/12/21 05:36:11;;;;;;;0.40;0.20;;;;;;;2.45;100.00;102049.00;5033894;28;20482;-69
2021/12/21 05:38:37;;;;;;;0.40;0.30;;;;;;;2.49;100.00;102053.72;5033831;28;20453;-69
2021/12/21 05:41:06;;;;;;;0.40;0.30;;;;;;;2.46;100.00;102050.63;5033545;28;20469;-69
2021/12/21 05:43:34;;;;;;;0.40;0.20;;;;;;;2.40;100.00;102054.97;5033722;28;20490;-68
2021/12/21 05:46:01;;;;;;;0.40;0.30;;;;;;;2.40;100.00;102056.81;5033934;28;20894;-66
2021/12/21 05:48:27;;;;;;;0.40;0.20;;;;;;;2.39;100.00;102055.16;5033730;28;20443;-69
2021/12/21 05:50:54;;;;;;;0.40;0.30;;;;;;;2.40;100.00;102054.97;5033952;28;20435;-69
2021/12/21 05:53:20;;;;;;;0.40;0.30;;;;;;;2.36;100.00;102053.75;5033458;28;20462;-69
2021/12/21 05:55:47;;;;;;;0.40;0.30;;;;;;;2.35;100.00;102053.97;5033582;28;20443;-69
2021/12/21 05:58:13;;;;;;;0.40;0.20;;;;;;;2.37;100.00;102060.72;5033808;28;20454;-69
2021/12/21 06:00:41;;;;;;;0.40;0.30;;;;;;;2.32;100.00;102065.88;5033548;28;20509;-71
2021/12/21 06:03:07;;;;;;;0.40;0.20;;;;;;;2.29;100.00;102063.63;5033710;28;20517;-67
2021/12/21 06:05:34;;;;;;;0.40;0.20;;;;;;;2.28;100.00;102065.47;5033684;28;20483;-68
2021/12/21 06:08:00;;;;;;;0.40;0.30;;;;;;;2.30;100.00;102067.13;5033735;28;20451;-71
2021/12/21 06:10:30;;;;;;;0.40;0.30;;;;;;;2.31;100.00;102066.94;5033576;28;20451;-70
2021/12/21 06:13:18;;;;;;;0.40;0.30;;;;;;;2.33;100.00;102070.19;5033585;28;20463;-67
2021/12/21 06:15:57;;;;;;;0.40;0.30;;;;;;;2.27;100.00;102061.16;5033622;28;20481;-66
2021/12/21 06:24:51;;;;;;;0.40;0.30;;;;;;;2.27;100.00;102071.88;5007880;28;20461;-67
2021/12/21 06:26:52;;;;;;;2.00;1.90;;;;;;;2.18;100.00;102075.78;5032839;28;20481;-68
2021/12/21 06:29:19;;;;;;;0.40;0.20;;;;;;;2.23;100.00;102077.84;5033086;28;20443;-67
2021/12/21 06:31:47;;;;;;;0.40;0.23;;;;;;;2.26;100.00;102072.09;5032975;28;20674;-67
2021/12/21 06:34:14;;;;;;;0.40;0.30;;;;;;;2.24;100.00;102069.59;5033400;28;20524;-67
2021/12/21 06:36:41;;;;;;;0.40;0.30;;;;;;;2.31;100.00;102079.47;5033542;28;20435;-67
2021/12/21 06:39:09;;;;;;;0.40;0.20;;;;;;;2.32;100.00;102073.09;5033073;28;20446;-67
2021/12/21 06:41:37;;;;;;;0.40;0.30;;;;;;;2.22;100.00;102077.03;5033052;28;20447;-67
2021/12/21 06:44:04;;;;;;;0.40;0.30;;;;;;;2.24;100.00;102069.59;5033042;28;20471;-68
2021/12/21 06:46:48;;;;;;;0.97;0.97;;;;;;;2.26;100.00;102072.91;5033110;28;20830;-68
2021/12/21 06:52:01;;;;;;;0.40;0.23;;;;;;;2.30;100.00;102075.94;5032878;28;20446;-68
2021/12/21 06:54:28;;;;;;;0.40;0.20;;;;;;;2.30;100.00;102085.81;5033073;28;20467;-68
2021/12/21 06:56:55;;;;;;;0.40;0.20;;;;;;;2.21;100.00;102086.06;5033083;28;20439;-67
2021/12/21 06:59:21;;;;;;;0.40;0.30;;;;;;;2.22;100.00;102084.22;5033136;28;20489;-67
2021/12/21 07:01:48;;;;;;;0.40;0.30;;;;;;;2.21;100.00;102080.72;5032985;28;20451;-67
2021/12/21 07:04:18;;;;;;;0.40;0.30;;;;;;;2.17;100.00;102089.34;5033104;28;20450;-67
2021/12/21 07:06:46;;;;;;;0.40;0.30;;;;;;;2.17;100.00;102090.19;5036852;28;20521;-68
2021/12/21 07:09:18;;;;;;;0.40;0.27;;;;;;;2.23;100.00;102083.19;5036965;28;20443;-68
2021/12/21 07:11:50;;;;;;;0.40;0.30;;;;;;;2.17;100.00;102089.34;5036860;28;20431;-68
2021/12/21 07:19:46;;;;;;;0.40;0.23;;;;;;;2.11;100.00;102084.84;5036705;28;20906;-67
2021/12/21 07:22:13;;;;;;;0.40;0.20;;;;;;;2.10;100.00;102084.03;5036633;28;20856;-67
2021/12/21 07:24:40;;;;;;;0.40;0.30;;;;;;;2.11;100.00;102085.66;5036590;28;20451;-67
2021/12/21 07:27:07;;;;;;;0.40;0.30;;;;;;;2.11;100.00;102093.66;5036420;28;20854;-67
2021/12/21 07:29:34;;;;;;;0.40;0.20;;;;;;;2.00;100.00;102087.13;5036140;28;20967;-67
2021/12/21 07:32:00;;;;;;;0.40;0.30;;;;;;;2.04;100.00;102087.53;5036456;28;20474;-67
2021/12/21 07:34:26;;;;;;;0.40;0.30;;;;;;;2.03;100.00;102096.56;5036541;28;20466;-67
2021/12/21 07:36:54;;;;;;;0.40;0.20;;;;;;;2.03;100.00;102096.56;5036474;28;20431;-67
2021/12/21 07:39:21;;;;;;;0.40;0.30;;;;;;;2.07;100.00;102094.28;5036147;28;20450;-67
2021/12/21 07:41:48;;;;;;;0.40;0.20;;;;;;;2.09;100.00;102090.41;5036175;28;20458;-67
2021/12/21 07:44:14;;;;;;;0.40;0.30;;;;;;;2.10;100.00;102093.88;5036321;28;20518;-67
2021/12/21 07:46:42;;;;;;;0.40;0.20;;;;;;;2.15;100.00;102102.94;5036282;28;20475;-67
2021/12/21 07:49:08;;;;;;;1.23;1.23;;;;;;;2.13;100.00;102094.31;5036307;28;20801;-67
2021/12/21 07:51:35;;;;;;;0.40;0.20;;;;;;;2.14;100.00;102093.28;5036234;28;20458;-67
2021/12/21 07:54:03;;;;;;;0.40;0.30;;;;;;;2.14;100.00;102103.97;5035790;28;20976;-67
2021/12/21 07:56:30;;;;;;;0.40;0.30;;;;;;;2.14;100.00;102100.47;5036114;28;20510;-67
2021/12/21 07:58:57;;;;;;;0.40;0.30;;;;;;;2.18;100.00;102101.69;5036052;28;20447;-67
2021/12/21 08:01:24;;;;;;;0.40;0.30;;;;;;;2.26;100.00;102104.97;5036051;28;20443;-67
2021/12/21 08:03:53;;;;;;;0.40;0.30;;;;;;;2.30;100.00;102104.53;5035913;28;20470;-69
2021/12/21 08:06:19;;;;;;;0.40;0.27;;;;;;;2.26;100.00;102104.16;5035871;28;20537;-68
2021/12/21 08:08:48;;;;;;;0.40;0.30;;;;;;;2.24;100.00;102101.69;5035915;28;20439;-68
2021/12/21 08:11:28;;;;;;;0.40;0.23;;;;;;;2.22;100.00;102103.75;5035638;28;20465;-68
2021/12/21 08:13:56;;;;;;;0.40;0.30;;;;;;;2.19;100.00;102098.00;5035828;28;20463;-68
2021/12/21 08:16:22;;;;;;;0.50;0.50;;;;;;;2.22;100.00;102103.75;5035505;28;20443;-68
2021/12/21 08:18:49;;;;;;;0.40;0.27;;;;;;;2.23;100.00;102101.91;5035798;28;20461;-68
2021/12/21 08:21:17;;;;;;;0.40;0.27;;;;;;;2.20;100.00;102100.44;5035702;28;20459;-68
2021/12/21 08:23:44;;;;;;;0.40;0.27;;;;;;;2.21;100.00;102106.59;5035574;28;20505;-68
2021/12/21 08:26:11;;;;;;;0.40;0.30;;;;;;;2.25;100.00;102110.50;5035553;28;20557;-67
2021/12/21 08:28:38;;;;;;;0.40;0.30;;;;;;;2.24;100.00;102107.03;5035522;28;20860;-66
2021/12/21 08:31:09;;;;;;;0.40;0.20;;;;;;;2.28;100.00;102110.94;5035521;28;20454;-69
2021/12/21 08:33:36;;;;;;;0.80;0.80;;;;;;;2.28;100.00;102116.28;5035463;28;20886;-67
2021/12/21 08:36:03;;;;;;;0.40;0.30;;;;;;;2.35;100.00;102120.81;5035430;28;20439;-68
2021/12/21 08:38:31;;;;;;;0.40;0.30;;;;;;;2.35;100.00;102124.31;5035362;28;20451;-68
2021/12/21 08:40:59;;;;;;;0.40;0.30;;;;;;;2.34;100.00;102124.47;5035349;28;20450;-68
2021/12/21 08:43:28;;;;;;;0.40;0.30;;;;;;;2.34;100.00;102121.81;5035060;28;20475;-68
2021/12/21 08:45:56;;;;;;;0.40;0.30;;;;;;;2.35;100.00;102112.78;5035142;28;20450;-68
2021/12/21 08:48:23;;;;;;;0.40;0.30;;;;;;;2.33;100.00;102126.34;5035159;28;20450;-68
2021/12/21 08:50:53;;;;;;;0.40;0.30;;;;;;;2.39;100.00;102125.53;5035291;28;20447;-67
2021/12/21 08:53:20;;;;;;;0.40;0.30;;;;;;;2.37;100.00;102116.06;5034667;28;21008;-67
2021/12/21 08:55:46;;;;;;;0.40;0.20;;;;;;;2.30;100.00;102125.94;5035013;28;20443;-67
2021/12/21 08:58:14;;;;;;;0.40;0.30;;;;;;;2.35;100.00;102105.59;5034903;28;20798;-67
2021/12/21 09:00:41;;;;;;;0.40;0.20;;;;;;;2.52;100.00;102114.81;5034524;28;20513;-67
2021/12/21 09:03:10;;;;;;;0.40;0.30;;;;;;;2.61;100.00;102112.72;5034512;28;20994;-67
2021/12/21 09:05:37;;;;;;;0.40;0.20;;;;;;;2.57;100.00;102121.34;5034775;28;20966;-67
2021/12/21 09:08:04;;;;;;;0.40;0.30;;;;;;;2.61;100.00;102118.06;5034692;28;20489;-68
2021/12/21 09:10:32;;;;;;;0.40;0.30;;;;;;;2.57;100.00;102111.50;5034746;28;20442;-67
2021/12/21 09:12:59;;;;;;;0.40;0.30;;;;;;;2.65;100.00;102113.91;5034627;28;20475;-67
2021/12/21 09:15:28;;;;;;;0.40;0.20;;;;;;;2.66;100.00;102118.25;5034385;28;20867;-67
2021/12/21 09:17:55;;;;;;;0.40;0.30;;;;;;;2.68;100.00;102121.53;5034305;28;20928;-67
2021/12/21 09:20:24;;;;;;;0.40;0.20;;;;;;;2.69;100.00;102128.53;5034527;28;20447;-67
2021/12/21 09:22:53;;;;;;;0.40;0.20;;;;;;;2.70;100.00;102124.84;5034382;28;20470;-67
2021/12/21 09:25:21;;;;;;;0.40;0.30;;;;;;;2.75;100.00;102129.56;5034475;28;20455;-67
2021/12/21 09:27:48;;;;;;;0.40;0.20;;;;;;;2.72;99.79;102128.13;5033613;28;20483;-67
2021/12/21 09:30:17;;;;;;;0.40;0.30;;;;;;;2.76;100.00;102131.19;5034386;28;20443;-67
2021/12/21 09:32:44;;;;;;;0.40;0.20;;;;;;;2.72;99.54;102128.13;5034275;28;20466;-67
2021/12/21 09:35:12;;;;;;;0.50;0.50;;;;;;;2.56;99.18;102131.22;5034284;28;20447;-67
2021/12/21 09:37:40;;;;;;;0.40;0.20;;;;;;;2.48;98.89;102126.94;5034164;28;20440;-67
2021/12/21 09:40:10;;;;;;;0.40;0.30;;;;;;;2.40;99.06;102132.50;5034223;28;20442;-67
2021/12/21 09:42:37;;;;;;;0.40;0.20;;;;;;;2.41;99.00;102139.50;5033889;28;20494;-67
2021/12/21 09:45:05;;;;;;;0.50;0.40;;;;;;;2.42;98.74;102134.97;5034146;28;20493;-68
2021/12/21 09:47:33;;;;;;;0.40;0.30;;;;;;;2.38;99.10;102131.88;5033942;28;20487;-67
2021/12/21 09:50:00;;;;;;;0.40;0.30;;;;;;;2.45;98.62;102134.56;5034003;28;20447;-67
2021/12/21 09:52:29;;;;;;;0.40;0.30;;;;;;;2.47;98.19;102137.84;5033811;28;20516;-67
2021/12/21 09:54:57;;;;;;;0.40;0.30;;;;;;;2.45;98.01;102134.56;5033506;28;20451;-67
2021/12/21 09:57:24;;;;;;;0.40;0.30;;;;;;;2.44;98.79;102143.63;5033813;28;20462;-67
2021/12/21 09:59:52;;;;;;;0.40;0.30;;;;;;;2.50;98.49;102143.59;5033876;28;20451;-67
2021/12/21 10:02:21;;;;;;;0.40;0.30;;;;;;;2.54;98.93;102149.34;5033765;28;20459;-67
2021/12/21 10:04:49;;;;;;;0.40;0.20;;;;;;;2.48;99.31;102147.53;5033431;28;20858;-67
2021/12/21 10:07:18;;;;;;;0.40;0.30;;;;;;;2.50;98.66;102132.06;5033653;28;20490;-67
2021/12/21 10:09:46;;;;;;;0.40;0.30;;;;;;;2.40;98.34;102140.53;5033659;28;20451;-67
2021/12/21 10:12:26;;;;;;;0.40;0.30;;;;;;;2.34;99.61;102136.00;5033904;28;20491;-67
2021/12/21 10:15:01;;;;;;;0.40;0.23;;;;;;;2.37;99.60;102138.28;5033313;28;20939;-67
2021/12/21 10:17:31;;;;;;;0.40;0.30;;;;;;;2.44;100.00;102132.94;5033592;28;20438;-67
2021/12/21 10:19:57;;;;;;;0.40;0.20;;;;;;;2.47;100.00;102132.50;5033439;28;20443;-67
2021/12/21 10:22:24;;;;;;;0.40;0.30;;;;;;;2.53;100.00;102131.66;5033496;28;20463;-68
2021/12/21 10:24:52;;;;;;;0.83;0.83;;;;;;;2.55;100.00;102129.59;5033407;28;20439;-68
2021/12/21 10:27:24;;;;;;;0.40;0.30;;;;;;;2.39;99.75;102132.69;5033118;28;21054;-66
2021/12/21 10:29:53;;;;;;;0.73;0.73;;;;;;;2.20;99.70;102135.19;5033405;28;20674;-67
2021/12/21 10:32:21;;;;;;;0.40;0.30;;;;;;;1.88;99.95;102131.50;5033337;28;20834;-67
2021/12/21 10:34:59;;;;;;;0.40;0.30;;;;;;;1.88;100.00;102138.69;5033192;28;20447;-66
2021/12/21 10:37:28;;;;;;;0.40;0.30;;;;;;;1.86;100.00;102135.41;5033349;28;20435;-66
2021/12/21 10:40:16;;;;;;;0.40;0.30;;;;;;;1.94;100.00;102130.66;5033270;28;20458;-67
2021/12/21 10:42:50;;;;;;;0.40;0.20;;;;;;;2.04;100.00;102127.63;5033012;28;20478;-66
2021/12/21 10:45:18;;;;;;;0.40;0.20;;;;;;;2.09;100.00;102127.00;5033279;28;20427;-67
2021/12/21 10:47:46;;;;;;;0.40;0.23;;;;;;;2.15;100.00;102131.50;5033132;28;20486;-66
2021/12/21 10:50:15;;;;;;;11.03;3.80;;;;;;;2.11;100.00;102123.06;5033180;28;20446;-66
2021/12/21 10:52:43;;;;;;;0.40;0.30;;;;;;;2.15;100.00;102128.84;5033134;28;20463;-66
2021/12/21 10:55:10;;;;;;;0.40;0.20;;;;;;;2.23;100.00;102128.63;5033162;28;20458;-66
2021/12/21 10:57:36;;;;;;;0.40;0.30;;;;;;;2.31;100.00;102124.94;5033184;28;20471;-66
2021/12/21 11:00:10;;;;;;;0.40;0.23;;;;;;;2.44;100.00;102128.41;5032927;28;20443;-66
2021/12/21 11:02:36;;;;;;;0.43;0.43;;;;;;;2.45;99.19;102121.19;5032437;28;20452;-66
2021/12/21 11:05:07;;;;;;;0.40;0.30;;;;;;;2.45;99.08;102124.69;5032843;28;20447;-66
2021/12/21 11:07:39;;;;;;;0.40;0.30;;;;;;;2.31;98.49;102122.25;5032930;28;20573;-66
2021/12/21 11:10:11;;;;;;;4.43;4.23;;;;;;;2.20;98.28;102118.34;5033027;28;20427;-66
2021/12/21 11:12:48;;;;;;;0.40;0.20;;;;;;;2.22;98.60;102127.00;5031919;28;20478;-66
2021/12/21 11:15:19;;;;;;;0.40;0.30;;;;;;;2.14;98.22;102121.84;5031466;28;20439;-69
2021/12/21 11:17:46;;;;;;;0.40;0.20;;;;;;;2.05;98.46;102120.41;5013092;28;20428;-67
2021/12/21 11:20:14;;;;;;;0.40;0.20;;;;;;;2.16;98.78;102120.59;5013225;28;20444;-68
2021/12/21 11:22:43;;;;;;;0.40;0.20;;;;;;;2.28;99.25;102118.94;5013094;28;20460;-66
2021/12/21 11:25:11;;;;;;;0.40;0.20;;;;;;;2.40;98.96;102121.00;5012866;28;20827;-66
2021/12/21 11:27:40;;;;;;;0.40;0.30;;;;;;;2.37;98.35;102129.44;5013098;28;20538;-66
2021/12/21 11:30:11;;;;;;;0.40;0.30;;;;;;;2.40;98.37;102112.97;5013268;28;20440;-66
2021/12/21 11:32:43;;;;;;;0.40;0.20;;;;;;;2.49;98.42;102114.41;5013047;28;20464;-67
2021/12/21 11:37:59;;;;;;;0.40;0.20;;;;;;;2.51;97.32;102110.47;5012861;28;20436;-66
2021/12/21 11:40:29;;;;;;;0.40;0.20;;;;;;;2.62;97.37;102095.63;5013314;28;20444;-67
2021/12/21 11:43:10;;;;;;;0.40;0.30;;;;;;;2.70;96.96;102095.41;5012687;28;20487;-68
2021/12/21 11:45:41;;;;;;;0.40;0.20;;;;;;;2.76;96.84;102094.56;5012735;28;20906;-67
2021/12/21 11:48:19;;;;;;;0.40;0.30;;;;;;;2.77;96.35;102093.50;5012893;28;20510;-66
2021/12/21 11:50:47;;;;;;;0.40;0.20;;;;;;;2.72;96.27;102093.34;5013449;28;20523;-67
2021/12/21 11:53:17;;;;;;;0.40;0.30;;;;;;;2.78;96.45;102097.00;5016615;28;20456;-67
2021/12/21 11:55:46;;;;;;;0.40;0.20;;;;;;;2.76;96.55;102093.75;5016456;28;20799;-67
2021/12/21 11:58:19;;;;;;;0.40;0.30;;;;;;;2.81;96.59;102104.63;5016354;28;20447;-66
2021/12/21 12:00:49;;;;;;;0.40;0.20;;;;;;;2.80;96.49;102092.28;5015970;28;20456;-67
2021/12/21 12:03:22;;;;;;;0.40;0.20;;;;;;;2.87;96.76;102094.91;5016349;28;20996;-66
2021/12/21 12:05:54;;;;;;;0.40;0.30;;;;;;;2.87;96.69;102095.75;5016155;28;20442;-66
2021/12/21 12:08:22;;;;;;;0.40;0.30;;;;;;;2.85;96.41;102102.34;5015977;28;20487;-66